sensor_id;sensor_type;location;lat;lon;timestamp;pressure;altitude;pressure_sealevel;temperature;humidity
62524;BME280;53689;56.878;60.672;2022-11-11T00:00:17;98266.94;;;21.86;28.02
62524;BME280;53689;56.878;60.672;2022-11-11T00:03:03;98264.06;;;21.87;28.73
62524;BME280;53689;56.878;60.672;2022-11-11T00:05:49;98264.06;;;21.87;27.65
62524;BME280;53689;56.878;60.672;2022-11-11T00:08:35;98265.72;;;21.88;28.07
62524;BME280;53689;56.878;60.672;2022-11-11T00:11:23;98265.72;;;21.88;28.32
62524;BME280;53689;56.878;60.672;2022-11-11T00:14:09;98259.50;;;21.88;28.44
62524;BME280;53689;56.878;60.672;2022-11-11T00:16:55;98260.34;;;21.88;28.30
62524;BME280;53689;56.878;60.672;2022-11-11T00:19:41;98254.09;;;21.88;28.82
62524;BME280;53689;56.878;60.672;2022-11-11T00:22:27;98247.88;;;21.87;28.49
62524;BME280;53689;56.878;60.672;2022-11-11T00:25:13;98254.72;;;21.90;28.48
62524;BME280;53689;56.878;60.672;2022-11-11T00:28:01;98246.00;;;21.88;28.30
62524;BME280;53689;56.878;60.672;2022-11-11T00:30:47;98247.03;;;21.87;28.78
62524;BME280;53689;56.878;60.672;2022-11-11T00:33:33;98244.25;;;21.38;29.61
62524;BME280;53689;56.878;60.672;2022-11-11T00:36:20;98233.97;;;21.77;29.16
62524;BME280;53689;56.878;60.672;2022-11-11T00:39:06;98242.06;;;21.84;28.11
62524;BME280;53689;56.878;60.672;2022-11-11T00:41:51;98225.91;;;21.84;28.94
62524;BME280;53689;56.878;60.672;2022-11-11T00:44:39;98230.06;;;21.86;28.89
62524;BME280;53689;56.878;60.672;2022-11-11T00:47:25;98225.50;;;21.87;28.84
62524;BME280;53689;56.878;60.672;2022-11-11T00:50:13;98220.72;;;21.89;28.77
62524;BME280;53689;56.878;60.672;2022-11-11T00:52:59;98218.03;;;21.89;28.53
62524;BME280;53689;56.878;60.672;2022-11-11T00:55:46;98214.28;;;21.90;28.04
62524;BME280;53689;56.878;60.672;2022-11-11T00:58:32;98211.41;;;21.92;27.86
62524;BME280;53689;56.878;60.672;2022-11-11T01:01:19;98215.97;;;21.91;28.36
62524;BME280;53689;56.878;60.672;2022-11-11T01:04:06;98204.34;;;21.90;28.48
62524;BME280;53689;56.878;60.672;2022-11-11T01:06:51;98208.53;;;21.93;28.39
62524;BME280;53689;56.878;60.672;2022-11-11T01:09:37;98204.78;;;21.94;28.23
62524;BME280;53689;56.878;60.672;2022-11-11T01:12:24;98197.50;;;21.95;28.88
62524;BME280;53689;56.878;60.672;2022-11-11T01:15:09;98191.94;;;21.96;28.61
62524;BME280;53689;56.878;60.672;2022-11-11T01:17:59;98189.25;;;21.96;28.50
62524;BME280;53689;56.878;60.672;2022-11-11T01:20:46;98186.13;;;21.99;28.45
62524;BME280;53689;56.878;60.672;2022-11-11T01:23:35;98191.09;;;21.96;28.40
62524;BME280;53689;56.878;60.672;2022-11-11T01:26:23;98175.75;;;21.96;29.05
62524;BME280;53689;56.878;60.672;2022-11-11T01:29:15;98182.00;;;21.97;28.86
62524;BME280;53689;56.878;60.672;2022-11-11T01:32:02;98185.31;;;21.99;28.49
62524;BME280;53689;56.878;60.672;2022-11-11T01:34:50;98186.97;;;22.00;28.45
62524;BME280;53689;56.878;60.672;2022-11-11T01:37:36;98188.00;;;21.99;28.55
62524;BME280;53689;56.878;60.672;2022-11-11T01:40:22;98178.03;;;21.99;28.92
62524;BME280;53689;56.878;60.672;2022-11-11T01:43:19;98180.72;;;21.99;28.55
62524;BME280;53689;56.878;60.672;2022-11-11T01:46:17;98172.66;;;21.99;28.99
62524;BME280;53689;56.878;60.672;2022-11-11T01:49:13;98163.53;;;22.00;28.54
62524;BME280;53689;56.878;60.672;2022-11-11T01:52:05;98159.81;;;22.01;29.05
62524;BME280;53689;56.878;60.672;2022-11-11T01:54:55;98157.13;;;22.01;29.10
62524;BME280;53689;56.878;60.672;2022-11-11T01:57:45;98160.63;;;22.02;27.44
62524;BME280;53689;56.878;60.672;2022-11-11T02:00:33;98154.22;;;22.03;28.31
62524;BME280;53689;56.878;60.672;2022-11-11T02:03:20;98142.81;;;22.01;28.93
62524;BME280;53689;56.878;60.672;2022-11-11T02:06:10;98151.50;;;22.03;28.80
62524;BME280;53689;56.878;60.672;2022-11-11T02:08:57;98148.00;;;22.02;29.11
62524;BME280;53689;56.878;60.672;2022-11-11T02:11:44;98139.91;;;22.02;28.66
62524;BME280;53689;56.878;60.672;2022-11-11T02:14:30;98147.78;;;22.04;28.84
62524;BME280;53689;56.878;60.672;2022-11-11T02:17:17;98140.53;;;22.04;29.11
62524;BME280;53689;56.878;60.672;2022-11-11T02:20:04;98139.50;;;22.06;28.63
62524;BME280;53689;56.878;60.672;2022-11-11T02:22:55;98134.09;;;22.06;28.77
62524;BME280;53689;56.878;60.672;2022-11-11T02:25:46;98129.56;;;22.06;28.89
62524;BME280;53689;56.878;60.672;2022-11-11T02:28:33;98134.72;;;22.08;28.77
62524;BME280;53689;56.878;60.672;2022-11-11T02:31:25;98131.22;;;22.07;28.72
62524;BME280;53689;56.878;60.672;2022-11-11T02:34:12;98125.81;;;22.07;28.91
62524;BME280;53689;56.878;60.672;2022-11-11T02:36:58;98122.91;;;22.09;29.13
62524;BME280;53689;56.878;60.672;2022-11-11T02:39:47;98126.44;;;22.09;29.03
62524;BME280;53689;56.878;60.672;2022-11-11T02:42:50;98114.19;;;22.07;29.08
62524;BME280;53689;56.878;60.672;2022-11-11T02:45:36;98115.22;;;22.06;29.63
62524;BME280;53689;56.878;60.672;2022-11-11T02:48:23;98122.06;;;21.46;28.55
62524;BME280;53689;56.878;60.672;2022-11-11T02:51:10;98110.47;;;21.45;29.67
62524;BME280;53689;56.878;60.672;2022-11-11T02:53:56;98104.34;;;21.23;29.46
62524;BME280;53689;56.878;60.672;2022-11-11T02:56:42;98099.09;;;21.08;29.06
62524;BME280;53689;56.878;60.672;2022-11-11T02:59:30;98091.34;;;20.91;29.06
62524;BME280;53689;56.878;60.672;2022-11-11T03:02:16;98088.09;;;20.74;29.05
62524;BME280;53689;56.878;60.672;2022-11-11T03:05:02;98087.66;;;20.71;28.72
62524;BME280;53689;56.878;60.672;2022-11-11T03:07:49;98081.91;;;20.80;28.94
62524;BME280;53689;56.878;60.672;2022-11-11T03:10:35;98079.56;;;20.64;28.70
62524;BME280;53689;56.878;60.672;2022-11-11T03:13:22;98076.06;;;20.70;29.42
62524;BME280;53689;56.878;60.672;2022-11-11T03:16:10;98070.59;;;20.57;29.16
62524;BME280;53689;56.878;60.672;2022-11-11T03:18:56;98075.94;;;20.50;29.32
62524;BME280;53689;56.878;60.672;2022-11-11T03:21:42;98075.28;;;20.76;30.57
62524;BME280;53689;56.878;60.672;2022-11-11T03:24:48;98069.13;;;20.54;30.65
62524;BME280;53689;56.878;60.672;2022-11-11T03:27:34;98066.44;;;20.54;29.50
62524;BME280;53689;56.878;60.672;2022-11-11T03:30:20;98063.06;;;20.45;29.61
62524;BME280;53689;56.878;60.672;2022-11-11T03:33:07;98058.91;;;20.43;28.84
62524;BME280;53689;56.878;60.672;2022-11-11T03:35:54;98052.50;;;20.44;29.52
62524;BME280;53689;56.878;60.672;2022-11-11T03:38:39;98053.09;;;20.39;29.27
62524;BME280;53689;56.878;60.672;2022-11-11T03:41:26;98042.72;;;20.36;29.11
62524;BME280;53689;56.878;60.672;2022-11-11T03:44:12;98049.84;;;20.50;28.95
62524;BME280;53689;56.878;60.672;2022-11-11T03:46:58;98049.31;;;20.33;28.93
62524;BME280;53689;56.878;60.672;2022-11-11T03:49:45;98039.38;;;20.34;29.25
62524;BME280;53689;56.878;60.672;2022-11-11T03:52:32;98044.72;;;20.27;29.51
62524;BME280;53689;56.878;60.672;2022-11-11T03:55:18;98038.31;;;20.28;29.52
62524;BME280;53689;56.878;60.672;2022-11-11T03:58:03;98037.28;;;20.29;29.36
62524;BME280;53689;56.878;60.672;2022-11-11T04:00:49;98022.00;;;20.30;29.78
62524;BME280;53689;56.878;60.672;2022-11-11T04:03:36;98025.25;;;20.25;29.32
62524;BME280;53689;56.878;60.672;2022-11-11T04:06:23;98030.31;;;20.35;29.68
62524;BME280;53689;56.878;60.672;2022-11-11T04:09:09;98036.22;;;20.52;29.53
62524;BME280;53689;56.878;60.672;2022-11-11T04:11:55;98027.03;;;20.75;29.59
62524;BME280;53689;56.878;60.672;2022-11-11T04:14:41;98028.00;;;20.96;29.40
62524;BME280;53689;56.878;60.672;2022-11-11T04:17:27;98021.66;;;21.10;29.63
62524;BME280;53689;56.878;60.672;2022-11-11T04:20:12;98023.78;;;21.28;29.65
62524;BME280;53689;56.878;60.672;2022-11-11T04:23:00;98020.56;;;21.46;30.05
62524;BME280;53689;56.878;60.672;2022-11-11T04:25:46;98011.69;;;21.59;30.31
62524;BME280;53689;56.878;60.672;2022-11-11T04:28:32;98010.22;;;21.63;30.57
62524;BME280;53689;56.878;60.672;2022-11-11T04:31:18;98006.94;;;21.68;30.23
62524;BME280;53689;56.878;60.672;2022-11-11T04:34:04;97988.25;;;21.67;30.25
62524;BME280;53689;56.878;60.672;2022-11-11T04:36:50;97987.91;;;21.70;30.05
62524;BME280;53689;56.878;60.672;2022-11-11T04:39:37;97988.72;;;21.70;28.89
62524;BME280;53689;56.878;60.672;2022-11-11T04:42:24;97982.50;;;21.70;29.78
62524;BME280;53689;56.878;60.672;2022-11-11T04:45:12;97980.22;;;21.73;30.31
62524;BME280;53689;56.878;60.672;2022-11-11T04:47:59;97975.00;;;21.65;30.33
62524;BME280;53689;56.878;60.672;2022-11-11T04:50:45;97975.03;;;21.72;30.20
62524;BME280;53689;56.878;60.672;2022-11-11T04:53:31;97971.72;;;21.70;29.97
62524;BME280;53689;56.878;60.672;2022-11-11T04:56:19;97968.19;;;21.76;29.86
62524;BME280;53689;56.878;60.672;2022-11-11T04:59:05;97960.34;;;21.81;29.59
62524;BME280;53689;56.878;60.672;2022-11-11T05:01:51;97959.91;;;21.84;29.12
62524;BME280;53689;56.878;60.672;2022-11-11T05:04:37;97954.31;;;21.86;29.44
62524;BME280;53689;56.878;60.672;2022-11-11T05:07:23;97958.69;;;21.87;28.89
62524;BME280;53689;56.878;60.672;2022-11-11T05:10:10;97954.94;;;21.95;28.79
62524;BME280;53689;56.878;60.672;2022-11-11T05:12:57;97946.03;;;21.94;28.95
62524;BME280;53689;56.878;60.672;2022-11-11T05:15:43;97952.22;;;21.95;28.36
62524;BME280;53689;56.878;60.672;2022-11-11T05:18:29;97942.72;;;21.92;28.87
62524;BME280;53689;56.878;60.672;2022-11-11T05:21:17;97956.38;;;21.97;28.62
62524;BME280;53689;56.878;60.672;2022-11-11T05:24:03;97942.91;;;22.11;29.01
62524;BME280;53689;56.878;60.672;2022-11-11T05:26:49;97940.84;;;21.99;28.98
62524;BME280;53689;56.878;60.672;2022-11-11T05:29:36;97932.75;;;21.93;28.91
62524;BME280;53689;56.878;60.672;2022-11-11T05:32:23;97929.00;;;22.00;29.04
62524;BME280;53689;56.878;60.672;2022-11-11T05:35:10;97944.56;;;22.05;28.76
62524;BME280;53689;56.878;60.672;2022-11-11T05:38:01;97945.59;;;22.04;29.49
62524;BME280;53689;56.878;60.672;2022-11-11T05:40:47;97944.34;;;22.13;28.76
62524;BME280;53689;56.878;60.672;2022-11-11T05:43:34;97941.47;;;22.01;29.84
62524;BME280;53689;56.878;60.672;2022-11-11T05:46:21;97939.19;;;22.12;29.04
62524;BME280;53689;56.878;60.672;2022-11-11T05:49:07;97940.63;;;22.08;29.47
62524;BME280;53689;56.878;60.672;2022-11-11T05:51:54;97934.19;;;22.09;29.16
62524;BME280;53689;56.878;60.672;2022-11-11T05:54:41;97932.13;;;22.17;28.78
62524;BME280;53689;56.878;60.672;2022-11-11T05:57:27;97929.00;;;22.14;29.85
62524;BME280;53689;56.878;60.672;2022-11-11T06:00:13;97935.00;;;22.16;29.05
62524;BME280;53689;56.878;60.672;2022-11-11T06:03:04;97916.16;;;22.16;30.12
62524;BME280;53689;56.878;60.672;2022-11-11T06:05:51;97914.06;;;22.18;29.15
62524;BME280;53689;56.878;60.672;2022-11-11T06:08:38;97907.84;;;22.17;29.30
62524;BME280;53689;56.878;60.672;2022-11-11T06:11:24;97907.03;;;22.10;29.29
62524;BME280;53689;56.878;60.672;2022-11-11T06:14:17;97899.34;;;22.21;29.19
62524;BME280;53689;56.878;60.672;2022-11-11T06:17:03;97902.88;;;22.21;29.67
62524;BME280;53689;56.878;60.672;2022-11-11T06:19:50;97892.91;;;22.15;29.71
62524;BME280;53689;56.878;60.672;2022-11-11T06:22:36;97894.16;;;22.19;28.98
62524;BME280;53689;56.878;60.672;2022-11-11T06:25:22;97887.94;;;22.18;29.88
62524;BME280;53689;56.878;60.672;2022-11-11T06:28:09;97899.13;;;22.22;28.94
62524;BME280;53689;56.878;60.672;2022-11-11T06:30:55;97895.19;;;22.18;29.08
62524;BME280;53689;56.878;60.672;2022-11-11T06:33:41;97903.47;;;22.30;28.30
62524;BME280;53689;56.878;60.672;2022-11-11T06:36:29;97892.72;;;22.10;30.05
62524;BME280;53689;56.878;60.672;2022-11-11T06:39:15;97887.09;;;22.18;30.38
62524;BME280;53689;56.878;60.672;2022-11-11T06:42:01;97887.53;;;22.15;30.33
62524;BME280;53689;56.878;60.672;2022-11-11T06:44:47;97888.34;;;22.22;29.49
62524;BME280;53689;56.878;60.672;2022-11-11T06:47:33;97887.94;;;22.18;30.22
62524;BME280;53689;56.878;60.672;2022-11-11T06:50:19;97885.88;;;22.00;30.15
62524;BME280;53689;56.878;60.672;2022-11-11T06:53:07;97880.66;;;22.19;29.50
62524;BME280;53689;56.878;60.672;2022-11-11T06:55:54;97870.91;;;22.18;29.96
62524;BME280;53689;56.878;60.672;2022-11-11T06:58:40;97871.78;;;22.12;30.30
62524;BME280;53689;56.878;60.672;2022-11-11T07:01:26;97875.50;;;22.04;29.95
62524;BME280;53689;56.878;60.672;2022-11-11T07:04:13;97872.41;;;22.14;29.50
62524;BME280;53689;56.878;60.672;2022-11-11T07:06:59;97875.09;;;22.14;29.25
62524;BME280;53689;56.878;60.672;2022-11-11T07:09:46;97859.94;;;22.20;29.57
62524;BME280;53689;56.878;60.672;2022-11-11T07:12:33;97866.38;;;22.05;29.62
62524;BME280;53689;56.878;60.672;2022-11-11T07:15:18;97858.47;;;22.17;29.27
62524;BME280;53689;56.878;60.672;2022-11-11T07:18:04;97852.34;;;21.89;29.37
62524;BME280;53689;56.878;60.672;2022-11-11T07:20:51;97855.63;;;21.98;29.57
62524;BME280;53689;56.878;60.672;2022-11-11T07:23:36;97851.47;;;22.02;30.01
62524;BME280;53689;56.878;60.672;2022-11-11T07:26:23;97845.44;;;22.00;28.98
62524;BME280;53689;56.878;60.672;2022-11-11T07:29:10;97842.34;;;22.03;29.43
62524;BME280;53689;56.878;60.672;2022-11-11T07:31:56;97839.84;;;22.09;29.07
62524;BME280;53689;56.878;60.672;2022-11-11T07:34:41;97832.41;;;21.97;30.31
62524;BME280;53689;56.878;60.672;2022-11-11T07:37:29;97825.75;;;22.07;30.10
62524;BME280;53689;56.878;60.672;2022-11-11T07:40:17;97827.22;;;22.02;29.14
62524;BME280;53689;56.878;60.672;2022-11-11T07:43:05;97813.75;;;22.02;29.57
62524;BME280;53689;56.878;60.672;2022-11-11T07:45:51;97821.25;;;21.80;29.79
62524;BME280;53689;56.878;60.672;2022-11-11T07:48:37;97809.81;;;21.98;28.99
62524;BME280;53689;56.878;60.672;2022-11-11T07:51:22;97807.13;;;21.92;29.17
62524;BME280;53689;56.878;60.672;2022-11-11T07:54:08;97805.88;;;21.94;29.12
62524;BME280;53689;56.878;60.672;2022-11-11T07:56:54;97804.88;;;21.61;29.83
62524;BME280;53689;56.878;60.672;2022-11-11T07:59:41;97802.41;;;21.73;30.90
62524;BME280;53689;56.878;60.672;2022-11-11T08:02:27;97806.75;;;21.47;29.93
62524;BME280;53689;56.878;60.672;2022-11-11T08:05:14;97802.00;;;21.36;29.61
62524;BME280;53689;56.878;60.672;2022-11-11T08:08:02;97806.31;;;21.57;29.88
62524;BME280;53689;56.878;60.672;2022-11-11T08:10:48;97798.03;;;21.59;29.68
62524;BME280;53689;56.878;60.672;2022-11-11T08:13:34;97795.75;;;21.89;29.82
62524;BME280;53689;56.878;60.672;2022-11-11T08:16:21;97790.97;;;21.85;29.27
62524;BME280;53689;56.878;60.672;2022-11-11T08:19:08;97783.56;;;21.73;29.67
62524;BME280;53689;56.878;60.672;2022-11-11T08:21:53;97801.78;;;21.78;29.14
62524;BME280;53689;56.878;60.672;2022-11-11T08:24:39;97793.47;;;21.80;28.80
62524;BME280;53689;56.878;60.672;2022-11-11T08:27:45;97788.94;;;21.73;29.13
62524;BME280;53689;56.878;60.672;2022-11-11T08:30:31;97792.47;;;21.27;29.33
62524;BME280;53689;56.878;60.672;2022-11-11T08:33:19;97792.25;;;21.35;28.63
62524;BME280;53689;56.878;60.672;2022-11-11T08:36:21;97785.22;;;21.47;28.91
62524;BME280;53689;56.878;60.672;2022-11-11T08:39:07;97785.41;;;21.59;28.98
62524;BME280;53689;56.878;60.672;2022-11-11T08:41:54;97788.72;;;21.41;28.94
62524;BME280;53689;56.878;60.672;2022-11-11T08:44:40;97781.06;;;21.72;28.26
62524;BME280;53689;56.878;60.672;2022-11-11T08:47:25;97776.47;;;21.66;29.72
62524;BME280;53689;56.878;60.672;2022-11-11T08:50:13;97774.22;;;21.69;29.23
62524;BME280;53689;56.878;60.672;2022-11-11T08:52:59;97774.00;;;21.57;29.39
62524;BME280;53689;56.878;60.672;2022-11-11T08:55:45;97763.44;;;21.69;28.85
62524;BME280;53689;56.878;60.672;2022-11-11T08:58:31;97758.28;;;21.47;29.04
62524;BME280;53689;56.878;60.672;2022-11-11T09:01:17;97763.84;;;21.53;28.72
62524;BME280;53689;56.878;60.672;2022-11-11T09:04:03;97761.38;;;21.51;28.75
62524;BME280;53689;56.878;60.672;2022-11-11T09:07:11;97765.72;;;21.59;28.37
62524;BME280;53689;56.878;60.672;2022-11-11T09:09:57;97744.13;;;21.66;28.88
62524;BME280;53689;56.878;60.672;2022-11-11T09:12:43;97751.41;;;21.65;29.03
62524;BME280;53689;56.878;60.672;2022-11-11T09:15:30;97753.09;;;21.46;28.82
62524;BME280;53689;56.878;60.672;2022-11-11T09:18:16;97737.56;;;21.55;30.61
62524;BME280;53689;56.878;60.672;2022-11-11T09:21:03;97749.38;;;21.54;31.95
62524;BME280;53689;56.878;60.672;2022-11-11T09:23:50;97737.56;;;21.55;30.63
62524;BME280;53689;56.878;60.672;2022-11-11T09:26:36;97734.44;;;21.58;31.66
62524;BME280;53689;56.878;60.672;2022-11-11T09:29:22;97731.53;;;21.53;29.87
62524;BME280;53689;56.878;60.672;2022-11-11T09:32:09;97729.25;;;21.63;30.00
62524;BME280;53689;56.878;60.672;2022-11-11T09:34:55;97732.13;;;21.75;29.69
62524;BME280;53689;56.878;60.672;2022-11-11T09:37:40;97724.50;;;21.58;30.51
62524;BME280;53689;56.878;60.672;2022-11-11T09:40:41;97727.56;;;21.75;29.62
62524;BME280;53689;56.878;60.672;2022-11-11T09:43:36;97719.50;;;21.75;30.29
62524;BME280;53689;56.878;60.672;2022-11-11T09:46:36;97720.50;;;21.81;29.76
62524;BME280;53689;56.878;60.672;2022-11-11T09:49:53;97720.06;;;21.84;29.53
62524;BME280;53689;56.878;60.672;2022-11-11T09:52:45;97725.91;;;21.81;29.17
62524;BME280;53689;56.878;60.672;2022-11-11T09:55:36;97728.41;;;21.69;29.12
62524;BME280;53689;56.878;60.672;2022-11-11T09:58:28;97718.25;;;21.58;29.91
62524;BME280;53689;56.878;60.672;2022-11-11T10:01:20;97718.06;;;21.59;29.57
62524;BME280;53689;56.878;60.672;2022-11-11T10:04:22;97712.47;;;21.74;29.43
62524;BME280;53689;56.878;60.672;2022-11-11T10:07:13;97712.25;;;21.69;28.89
62524;BME280;53689;56.878;60.672;2022-11-11T10:10:11;97710.56;;;21.82;29.51
62524;BME280;53689;56.878;60.672;2022-11-11T10:13:02;97714.28;;;21.81;28.93
62524;BME280;53689;56.878;60.672;2022-11-11T10:15:57;97709.69;;;21.88;29.57
62524;BME280;53689;56.878;60.672;2022-11-11T10:18:55;97708.41;;;21.97;29.46
62524;BME280;53689;56.878;60.672;2022-11-11T10:21:50;97705.75;;;21.90;28.83
62524;BME280;53689;56.878;60.672;2022-11-11T10:25:00;97711.56;;;21.94;29.56
62524;BME280;53689;56.878;60.672;2022-11-11T10:27:52;97692.84;;;21.99;29.47
62524;BME280;53689;56.878;60.672;2022-11-11T10:30:39;97701.78;;;22.00;30.04
62524;BME280;53689;56.878;60.672;2022-11-11T10:33:28;97692.84;;;21.99;29.89
62524;BME280;53689;56.878;60.672;2022-11-11T10:36:17;97699.28;;;21.98;29.66
62524;BME280;53689;56.878;60.672;2022-11-11T10:39:04;97707.84;;;21.88;29.63
62524;BME280;53689;56.878;60.672;2022-11-11T10:41:51;97709.50;;;21.89;29.71
62524;BME280;53689;56.878;60.672;2022-11-11T10:44:37;97710.09;;;21.92;30.01
62524;BME280;53689;56.878;60.672;2022-11-11T10:47:32;97710.91;;;21.99;29.57
62524;BME280;53689;56.878;60.672;2022-11-11T10:50:23;97711.59;;;21.81;29.57
62524;BME280;53689;56.878;60.672;2022-11-11T10:53:15;97710.94;;;21.92;29.65
62524;BME280;53689;56.878;60.672;2022-11-11T10:56:08;97714.69;;;21.91;28.71
62524;BME280;53689;56.878;60.672;2022-11-11T10:59:01;97710.56;;;21.82;29.50
62524;BME280;53689;56.878;60.672;2022-11-11T11:01:53;97702.66;;;21.87;29.49
62524;BME280;53689;56.878;60.672;2022-11-11T11:04:47;97704.94;;;21.83;29.54
62524;BME280;53689;56.878;60.672;2022-11-11T11:07:39;97710.94;;;21.92;29.48
62524;BME280;53689;56.878;60.672;2022-11-11T11:10:31;97708.84;;;21.94;29.40
62524;BME280;53689;56.878;60.672;2022-11-11T11:13:24;97708.63;;;21.96;29.16
62524;BME280;53689;56.878;60.672;2022-11-11T11:16:16;97699.28;;;21.98;29.09
62524;BME280;53689;56.878;60.672;2022-11-11T11:19:18;97697.44;;;21.99;28.61
62524;BME280;53689;56.878;60.672;2022-11-11T11:22:06;97696.38;;;22.00;28.98
62524;BME280;53689;56.878;60.672;2022-11-11T11:25:08;97698.00;;;22.08;28.65
62524;BME280;53689;56.878;60.672;2022-11-11T11:28:06;97699.84;;;22.14;28.71
62524;BME280;53689;56.878;60.672;2022-11-11T11:31:01;97700.00;;;22.19;28.90
62524;BME280;53689;56.878;60.672;2022-11-11T11:33:52;97686.53;;;22.19;28.88
62524;BME280;53689;56.878;60.672;2022-11-11T11:36:38;97696.47;;;22.25;29.35
62524;BME280;53689;56.878;60.672;2022-11-11T11:39:34;97697.72;;;22.29;29.25
62524;BME280;53689;56.878;60.672;2022-11-11T11:42:28;97697.91;;;22.28;29.35
62524;BME280;53689;56.878;60.672;2022-11-11T11:45:23;97691.06;;;22.25;29.06
62524;BME280;53689;56.878;60.672;2022-11-11T11:48:19;97690.81;;;22.34;29.27
62524;BME280;53689;56.878;60.672;2022-11-11T11:51:26;97693.13;;;22.30;28.99
62524;BME280;53689;56.878;60.672;2022-11-11T11:54:28;97693.31;;;22.35;29.01
62524;BME280;53689;56.878;60.672;2022-11-11T11:57:41;97697.88;;;22.35;29.17
62524;BME280;53689;56.878;60.672;2022-11-11T12:00:35;97700.13;;;22.38;28.81
62524;BME280;53689;56.878;60.672;2022-11-11T12:06:49;97698.66;;;22.42;28.97
62524;BME280;53689;56.878;60.672;2022-11-11T12:09:48;97701.75;;;22.45;28.79
62524;BME280;53689;56.878;60.672;2022-11-11T12:12:49;97702.56;;;22.46;28.71
62524;BME280;53689;56.878;60.672;2022-11-11T12:15:39;97702.34;;;22.54;29.11
62524;BME280;53689;56.878;60.672;2022-11-11T12:18:34;97711.31;;;22.41;28.90
62524;BME280;53689;56.878;60.672;2022-11-11T12:21:28;97700.78;;;22.33;28.81
62524;BME280;53689;56.878;60.672;2022-11-11T12:24:32;97697.66;;;22.36;28.80
62524;BME280;53689;56.878;60.672;2022-11-11T12:27:27;97702.06;;;22.30;28.97
62524;BME280;53689;56.878;60.672;2022-11-11T12:30:19;97696.88;;;22.29;29.34
62524;BME280;53689;56.878;60.672;2022-11-11T12:33:19;97697.06;;;22.27;29.09
62524;BME280;53689;56.878;60.672;2022-11-11T12:36:13;97699.53;;;22.36;28.79
62524;BME280;53689;56.878;60.672;2022-11-11T12:39:05;97696.13;;;22.47;29.10
62524;BME280;53689;56.878;60.672;2022-11-11T12:42:03;97687.00;;;22.55;28.48
62524;BME280;53689;56.878;60.672;2022-11-11T12:45:00;97697.81;;;22.41;28.65
62524;BME280;53689;56.878;60.672;2022-11-11T12:48:02;97694.91;;;22.43;28.18
62524;BME280;53689;56.878;60.672;2022-11-11T12:50:55;97698.06;;;22.40;29.16
62524;BME280;53689;56.878;60.672;2022-11-11T12:53:55;97699.53;;;22.36;28.50
62524;BME280;53689;56.878;60.672;2022-11-11T12:56:51;97698.91;;;22.34;29.13
62524;BME280;53689;56.878;60.672;2022-11-11T12:59:52;97697.88;;;22.35;28.85
62524;BME280;53689;56.878;60.672;2022-11-11T13:03:06;97686.69;;;22.31;30.38
62524;BME280;53689;56.878;60.672;2022-11-11T13:06:01;97692.69;;;22.33;29.66
62524;BME280;53689;56.878;60.672;2022-11-11T13:09:11;97690.81;;;22.34;29.52
62524;BME280;53689;56.878;60.672;2022-11-11T13:12:04;97679.44;;;22.31;29.78
62524;BME280;53689;56.878;60.672;2022-11-11T13:15:00;97683.78;;;22.33;29.75
62524;BME280;53689;56.878;60.672;2022-11-11T13:17:47;97674.03;;;22.31;29.39
62524;BME280;53689;56.878;60.672;2022-11-11T13:20:45;97677.53;;;22.32;29.10
62524;BME280;53689;56.878;60.672;2022-11-11T13:23:34;97678.13;;;22.41;29.29
62524;BME280;53689;56.878;60.672;2022-11-11T13:26:26;97668.00;;;22.36;29.34
62524;BME280;53689;56.878;60.672;2022-11-11T13:29:40;97669.25;;;22.34;29.29
62524;BME280;53689;56.878;60.672;2022-11-11T13:32:32;97662.66;;;22.29;29.50
62524;BME280;53689;56.878;60.672;2022-11-11T13:35:23;97670.09;;;22.34;29.56
62524;BME280;53689;56.878;60.672;2022-11-11T13:38:24;97659.31;;;22.34;29.52
62524;BME280;53689;56.878;60.672;2022-11-11T13:41:12;97665.34;;;22.29;28.95
62524;BME280;53689;56.878;60.672;2022-11-11T13:44:07;97663.41;;;22.37;29.95
62524;BME280;53689;56.878;60.672;2022-11-11T13:47:01;97669.03;;;22.35;29.21
62524;BME280;53689;56.878;60.672;2022-11-11T13:49:52;97671.50;;;22.37;29.25
62524;BME280;53689;56.878;60.672;2022-11-11T13:52:51;97665.91;;;22.38;29.01
62524;BME280;53689;56.878;60.672;2022-11-11T13:55:41;97670.44;;;22.44;28.60
62524;BME280;53689;56.878;60.672;2022-11-11T13:58:31;97671.09;;;22.40;28.61
62524;BME280;53689;56.878;60.672;2022-11-11T14:01:18;97681.03;;;22.39;28.66
62524;BME280;53689;56.878;60.672;2022-11-11T14:04:05;97675.44;;;22.41;28.71
62524;BME280;53689;56.878;60.672;2022-11-11T14:06:54;97665.25;;;22.11;30.13
62524;BME280;53689;56.878;60.672;2022-11-11T14:09:58;97675.91;;;22.31;29.16
62524;BME280;53689;56.878;60.672;2022-11-11T14:12:47;97673.69;;;22.21;28.96
62524;BME280;53689;56.878;60.672;2022-11-11T14:15:39;97675.09;;;22.30;29.27
62524;BME280;53689;56.878;60.672;2022-11-11T14:18:49;97682.09;;;22.38;28.90
62524;BME280;53689;56.878;60.672;2022-11-11T14:21:45;97666.34;;;22.35;29.23
62524;BME280;53689;56.878;60.672;2022-11-11T14:24:36;97672.16;;;22.32;29.16
62524;BME280;53689;56.878;60.672;2022-11-11T14:27:26;97678.88;;;22.16;29.66
62524;BME280;53689;56.878;60.672;2022-11-11T14:30:33;97665.72;;;22.33;29.39
62524;BME280;53689;56.878;60.672;2022-11-11T14:33:33;97666.56;;;22.34;29.64
62524;BME280;53689;56.878;60.672;2022-11-11T14:36:28;97662.00;;;22.27;29.10
62524;BME280;53689;56.878;60.672;2022-11-11T14:39:29;97664.09;;;22.25;29.11
62524;BME280;53689;56.878;60.672;2022-11-11T14:42:41;97664.16;;;22.18;29.91
62524;BME280;53689;56.878;60.672;2022-11-11T14:46:02;97657.28;;;22.23;29.42
62524;BME280;53689;56.878;60.672;2022-11-11T14:48:57;97665.50;;;22.35;29.50
62524;BME280;53689;56.878;60.672;2022-11-11T14:51:51;97666.75;;;22.39;29.36